Lochalsh, Canada
Current Conditions -  °F | °C
As of 7:00 PM on Monday 26 Jan 2015 (Local Time) from CYXZ Reporting Station
Broken Clouds Broken Clouds  
Wind Chill: 10°   Ceiling: 2000
Heat Index: 10°   Visibility: 15mi
Dew Point:   Wind: 3mph
Humidity: 85%   Direction: 120°ESE
Pressure: 30"   Gusts: NA
Location:  48.35°N, 84.27°W
Report Text: CYXZ 270000Z 12003KT 15SM BKN020 M12/M14 A3000 RMK SC6 LAST OBS/NEXT 271100UTC SLP187
Loading
Personal Weather Stations






























Interactive Weather Map New forecast layout! Learn more

10-Day Weather Forecast

Advertisements
Track Severe Weather on mobile